sensor_id;sensor_type;location;lat;lon;timestamp;P1;durP1;ratioP1;P2;durP2;ratioP2
20593;SDS011;10455;48.732;10.266;2022-07-01T00:03:44;0.00;;;0.00;;
20593;SDS011;10455;48.732;10.266;2022-07-01T00:08:50;0.00;;;0.00;;
20593;SDS011;10455;48.732;10.266;2022-07-01T00:13:52;0.00;;;0.00;;
20593;SDS011;10455;48.732;10.266;2022-07-01T00:18:55;0.00;;;0.00;;
20593;SDS011;10455;48.732;10.266;2022-07-01T00:23:57;0.00;;;0.00;;
20593;SDS011;10455;48.732;10.266;2022-07-01T00:29:00;0.00;;;0.00;;
20593;SDS011;10455;48.732;10.266;2022-07-01T00:34:03;0.00;;;0.00;;
20593;SDS011;10455;48.732;10.266;2022-07-01T00:39:05;0.03;;;0.03;;
20593;SDS011;10455;48.732;10.266;2022-07-01T00:44:15;0.10;;;0.10;;
20593;SDS011;10455;48.732;10.266;2022-07-01T00:49:19;0.00;;;0.00;;
20593;SDS011;10455;48.732;10.266;2022-07-01T00:54:21;0.00;;;0.00;;
20593;SDS011;10455;48.732;10.266;2022-07-01T00:59:24;0.25;;;0.25;;
20593;SDS011;10455;48.732;10.266;2022-07-01T01:04:27;0.00;;;0.00;;
20593;SDS011;10455;48.732;10.266;2022-07-01T01:09:30;0.00;;;0.00;;
20593;SDS011;10455;48.732;10.266;2022-07-01T01:14:42;0.00;;;0.00;;
20593;SDS011;10455;48.732;10.266;2022-07-01T01:19:46;0.00;;;0.00;;
20593;SDS011;10455;48.732;10.266;2022-07-01T01:24:50;0.00;;;0.00;;
20593;SDS011;10455;48.732;10.266;2022-07-01T01:29:52;0.00;;;0.00;;
20593;SDS011;10455;48.732;10.266;2022-07-01T01:34:55;0.00;;;0.00;;
20593;SDS011;10455;48.732;10.266;2022-07-01T01:39:58;0.00;;;0.00;;
20593;SDS011;10455;48.732;10.266;2022-07-01T01:45:01;0.00;;;0.00;;
20593;SDS011;10455;48.732;10.266;2022-07-01T01:50:04;0.10;;;0.10;;
20593;SDS011;10455;48.732;10.266;2022-07-01T01:55:08;0.00;;;0.00;;
20593;SDS011;10455;48.732;10.266;2022-07-01T02:00:12;0.10;;;0.10;;
20593;SDS011;10455;48.732;10.266;2022-07-01T02:05:15;0.10;;;0.10;;
20593;SDS011;10455;48.732;10.266;2022-07-01T02:10:20;0.10;;;0.10;;
20593;SDS011;10455;48.732;10.266;2022-07-01T02:15:22;0.03;;;0.03;;
20593;SDS011;10455;48.732;10.266;2022-07-01T02:20:24;0.00;;;0.00;;
20593;SDS011;10455;48.732;10.266;2022-07-01T02:25:28;0.00;;;0.00;;
20593;SDS011;10455;48.732;10.266;2022-07-01T02:30:30;0.00;;;0.00;;
20593;SDS011;10455;48.732;10.266;2022-07-01T02:35:37;0.00;;;0.00;;
20593;SDS011;10455;48.732;10.266;2022-07-01T02:40:42;0.00;;;0.00;;
20593;SDS011;10455;48.732;10.266;2022-07-01T02:45:44;0.00;;;0.00;;
20593;SDS011;10455;48.732;10.266;2022-07-01T02:50:46;0.00;;;0.00;;
20593;SDS011;10455;48.732;10.266;2022-07-01T02:55:50;0.10;;;0.10;;
20593;SDS011;10455;48.732;10.266;2022-07-01T03:00:52;0.10;;;0.10;;
20593;SDS011;10455;48.732;10.266;2022-07-01T03:05:54;0.03;;;0.03;;
20593;SDS011;10455;48.732;10.266;2022-07-01T03:10:58;0.10;;;0.10;;
20593;SDS011;10455;48.732;10.266;2022-07-01T03:16:00;0.17;;;0.17;;
20593;SDS011;10455;48.732;10.266;2022-07-01T03:21:03;0.10;;;0.10;;
20593;SDS011;10455;48.732;10.266;2022-07-01T03:26:06;0.10;;;0.10;;
20593;SDS011;10455;48.732;10.266;2022-07-01T03:31:08;0.00;;;0.00;;
20593;SDS011;10455;48.732;10.266;2022-07-01T03:36:10;0.10;;;0.10;;
20593;SDS011;10455;48.732;10.266;2022-07-01T03:41:16;0.10;;;0.10;;
20593;SDS011;10455;48.732;10.266;2022-07-01T03:46:18;0.10;;;0.10;;
20593;SDS011;10455;48.732;10.266;2022-07-01T03:51:20;0.27;;;0.27;;
20593;SDS011;10455;48.732;10.266;2022-07-01T03:56:23;0.10;;;0.10;;
20593;SDS011;10455;48.732;10.266;2022-07-01T04:01:26;0.00;;;0.00;;
20593;SDS011;10455;48.732;10.266;2022-07-01T04:06:28;0.10;;;0.10;;
20593;SDS011;10455;48.732;10.266;2022-07-01T04:11:32;0.10;;;0.10;;
20593;SDS011;10455;48.732;10.266;2022-07-01T04:16:34;0.53;;;0.53;;
20593;SDS011;10455;48.732;10.266;2022-07-01T04:21:37;0.10;;;0.10;;
20593;SDS011;10455;48.732;10.266;2022-07-01T04:26:58;0.10;;;0.10;;
20593;SDS011;10455;48.732;10.266;2022-07-01T04:32:01;0.10;;;0.10;;
20593;SDS011;10455;48.732;10.266;2022-07-01T04:37:03;0.10;;;0.10;;
20593;SDS011;10455;48.732;10.266;2022-07-01T04:42:07;0.10;;;0.10;;
20593;SDS011;10455;48.732;10.266;2022-07-01T04:47:09;0.10;;;0.10;;
20593;SDS011;10455;48.732;10.266;2022-07-01T04:52:11;0.10;;;0.10;;
20593;SDS011;10455;48.732;10.266;2022-07-01T04:57:15;0.10;;;0.10;;
20593;SDS011;10455;48.732;10.266;2022-07-01T05:02:17;0.10;;;0.10;;
20593;SDS011;10455;48.732;10.266;2022-07-01T05:07:19;0.10;;;0.10;;
20593;SDS011;10455;48.732;10.266;2022-07-01T05:12:32;0.10;;;0.10;;
20593;SDS011;10455;48.732;10.266;2022-07-01T05:17:34;0.10;;;0.10;;
20593;SDS011;10455;48.732;10.266;2022-07-01T05:22:54;0.10;;;0.10;;
20593;SDS011;10455;48.732;10.266;2022-07-01T05:27:58;0.10;;;0.10;;
20593;SDS011;10455;48.732;10.266;2022-07-01T05:33:00;0.10;;;0.10;;
20593;SDS011;10455;48.732;10.266;2022-07-01T05:38:02;0.10;;;0.10;;
20593;SDS011;10455;48.732;10.266;2022-07-01T05:43:06;0.10;;;0.10;;
20593;SDS011;10455;48.732;10.266;2022-07-01T05:48:08;0.10;;;0.10;;
20593;SDS011;10455;48.732;10.266;2022-07-01T05:53:10;0.10;;;0.10;;
20593;SDS011;10455;48.732;10.266;2022-07-01T05:58:13;0.10;;;0.10;;
20593;SDS011;10455;48.732;10.266;2022-07-01T06:03:16;0.10;;;0.10;;
20593;SDS011;10455;48.732;10.266;2022-07-01T06:08:18;0.10;;;0.10;;
20593;SDS011;10455;48.732;10.266;2022-07-01T06:13:21;0.20;;;0.20;;
20593;SDS011;10455;48.732;10.266;2022-07-01T06:18:24;0.10;;;0.10;;
20593;SDS011;10455;48.732;10.266;2022-07-01T06:23:26;0.20;;;0.20;;
20593;SDS011;10455;48.732;10.266;2022-07-01T06:28:30;0.20;;;0.20;;
20593;SDS011;10455;48.732;10.266;2022-07-01T06:33:32;0.20;;;0.20;;
20593;SDS011;10455;48.732;10.266;2022-07-01T06:38:34;0.20;;;0.20;;
20593;SDS011;10455;48.732;10.266;2022-07-01T06:43:38;0.30;;;0.30;;
20593;SDS011;10455;48.732;10.266;2022-07-01T06:48:40;0.70;;;0.70;;
20593;SDS011;10455;48.732;10.266;2022-07-01T06:53:43;0.30;;;0.30;;
20593;SDS011;10455;48.732;10.266;2022-07-01T06:58:48;0.30;;;0.30;;
20593;SDS011;10455;48.732;10.266;2022-07-01T07:03:50;0.40;;;0.40;;
20593;SDS011;10455;48.732;10.266;2022-07-01T07:08:52;0.40;;;0.40;;
20593;SDS011;10455;48.732;10.266;2022-07-01T07:13:56;0.30;;;0.30;;
20593;SDS011;10455;48.732;10.266;2022-07-01T07:18:58;0.50;;;0.50;;
20593;SDS011;10455;48.732;10.266;2022-07-01T07:24:00;0.20;;;0.20;;
20593;SDS011;10455;48.732;10.266;2022-07-01T07:29:04;0.20;;;0.20;;
20593;SDS011;10455;48.732;10.266;2022-07-01T07:34:06;0.20;;;0.20;;
20593;SDS011;10455;48.732;10.266;2022-07-01T07:39:08;0.30;;;0.30;;
20593;SDS011;10455;48.732;10.266;2022-07-01T07:44:11;0.30;;;0.30;;
20593;SDS011;10455;48.732;10.266;2022-07-01T07:49:14;0.20;;;0.20;;
20593;SDS011;10455;48.732;10.266;2022-07-01T07:54:16;0.20;;;0.20;;
20593;SDS011;10455;48.732;10.266;2022-07-01T07:59:19;0.20;;;0.20;;
20593;SDS011;10455;48.732;10.266;2022-07-01T08:04:22;0.20;;;0.20;;
20593;SDS011;10455;48.732;10.266;2022-07-01T08:09:24;0.20;;;0.20;;
20593;SDS011;10455;48.732;10.266;2022-07-01T08:14:29;0.30;;;0.30;;
20593;SDS011;10455;48.732;10.266;2022-07-01T08:19:31;0.30;;;0.30;;
20593;SDS011;10455;48.732;10.266;2022-07-01T08:24:33;0.30;;;0.30;;
20593;SDS011;10455;48.732;10.266;2022-07-01T08:29:37;0.30;;;0.30;;
20593;SDS011;10455;48.732;10.266;2022-07-01T08:34:39;0.30;;;0.30;;
20593;SDS011;10455;48.732;10.266;2022-07-01T08:39:41;0.30;;;0.30;;
20593;SDS011;10455;48.732;10.266;2022-07-01T08:44:44;0.30;;;0.30;;
20593;SDS011;10455;48.732;10.266;2022-07-01T08:49:47;0.20;;;0.20;;
20593;SDS011;10455;48.732;10.266;2022-07-01T08:54:49;0.30;;;0.30;;
20593;SDS011;10455;48.732;10.266;2022-07-01T09:00:02;0.30;;;0.30;;
20593;SDS011;10455;48.732;10.266;2022-07-01T09:05:07;0.40;;;0.40;;
20593;SDS011;10455;48.732;10.266;2022-07-01T09:10:14;0.20;;;0.20;;
20593;SDS011;10455;48.732;10.266;2022-07-01T09:15:21;0.20;;;0.20;;
20593;SDS011;10455;48.732;10.266;2022-07-01T09:20:29;0.37;;;0.37;;
20593;SDS011;10455;48.732;10.266;2022-07-01T09:25:34;0.30;;;0.30;;
20593;SDS011;10455;48.732;10.266;2022-07-01T09:30:42;0.30;;;0.30;;
20593;SDS011;10455;48.732;10.266;2022-07-01T09:35:45;0.20;;;0.20;;
20593;SDS011;10455;48.732;10.266;2022-07-01T09:40:53;0.20;;;0.20;;
20593;SDS011;10455;48.732;10.266;2022-07-01T09:45:58;0.20;;;0.20;;
20593;SDS011;10455;48.732;10.266;2022-07-01T09:51:01;0.20;;;0.20;;
20593;SDS011;10455;48.732;10.266;2022-07-01T09:56:04;0.30;;;0.30;;
20593;SDS011;10455;48.732;10.266;2022-07-01T10:01:08;0.20;;;0.20;;
20593;SDS011;10455;48.732;10.266;2022-07-01T10:06:22;0.20;;;0.20;;
20593;SDS011;10455;48.732;10.266;2022-07-01T10:17:06;0.23;;;0.23;;
20593;SDS011;10455;48.732;10.266;2022-07-01T10:22:23;0.20;;;0.20;;
20593;SDS011;10455;48.732;10.266;2022-07-01T10:27:27;0.20;;;0.20;;
20593;SDS011;10455;48.732;10.266;2022-07-01T10:32:31;0.20;;;0.20;;
20593;SDS011;10455;48.732;10.266;2022-07-01T10:37:33;0.20;;;0.20;;
20593;SDS011;10455;48.732;10.266;2022-07-01T10:42:56;0.20;;;0.20;;
20593;SDS011;10455;48.732;10.266;2022-07-01T10:53:22;0.20;;;0.20;;
20593;SDS011;10455;48.732;10.266;2022-07-01T10:58:37;0.20;;;0.20;;
20593;SDS011;10455;48.732;10.266;2022-07-01T11:03:41;0.20;;;0.20;;
20593;SDS011;10455;48.732;10.266;2022-07-01T11:08:47;0.20;;;0.20;;
20593;SDS011;10455;48.732;10.266;2022-07-01T11:13:50;0.20;;;0.20;;
20593;SDS011;10455;48.732;10.266;2022-07-01T11:18:54;0.20;;;0.20;;
20593;SDS011;10455;48.732;10.266;2022-07-01T11:23:56;0.20;;;0.20;;
20593;SDS011;10455;48.732;10.266;2022-07-01T11:28:58;0.20;;;0.20;;
20593;SDS011;10455;48.732;10.266;2022-07-01T11:34:02;0.20;;;0.20;;
20593;SDS011;10455;48.732;10.266;2022-07-01T11:39:05;0.10;;;0.10;;
20593;SDS011;10455;48.732;10.266;2022-07-01T11:44:28;0.20;;;0.20;;
20593;SDS011;10455;48.732;10.266;2022-07-01T11:49:32;0.20;;;0.20;;
20593;SDS011;10455;48.732;10.266;2022-07-01T11:54:37;0.20;;;0.20;;
20593;SDS011;10455;48.732;10.266;2022-07-01T11:59:40;0.10;;;0.10;;
20593;SDS011;10455;48.732;10.266;2022-07-01T12:04:44;0.13;;;0.13;;
20593;SDS011;10455;48.732;10.266;2022-07-01T12:09:47;0.20;;;0.20;;
20593;SDS011;10455;48.732;10.266;2022-07-01T12:14:50;0.20;;;0.20;;
20593;SDS011;10455;48.732;10.266;2022-07-01T12:19:55;0.20;;;0.20;;
20593;SDS011;10455;48.732;10.266;2022-07-01T12:25:04;0.20;;;0.20;;
20593;SDS011;10455;48.732;10.266;2022-07-01T12:30:09;0.20;;;0.20;;
20593;SDS011;10455;48.732;10.266;2022-07-01T12:35:22;0.20;;;0.20;;
20593;SDS011;10455;48.732;10.266;2022-07-01T12:40:38;0.20;;;0.20;;
20593;SDS011;10455;48.732;10.266;2022-07-01T12:45:40;0.20;;;0.20;;
20593;SDS011;10455;48.732;10.266;2022-07-01T12:50:45;0.20;;;0.20;;
20593;SDS011;10455;48.732;10.266;2022-07-01T12:55:48;0.13;;;0.13;;
20593;SDS011;10455;48.732;10.266;2022-07-01T13:00:52;0.10;;;0.10;;
20593;SDS011;10455;48.732;10.266;2022-07-01T13:05:56;0.10;;;0.10;;
20593;SDS011;10455;48.732;10.266;2022-07-01T13:10:59;0.20;;;0.20;;
20593;SDS011;10455;48.732;10.266;2022-07-01T13:16:01;0.20;;;0.20;;
20593;SDS011;10455;48.732;10.266;2022-07-01T13:21:04;0.10;;;0.10;;
20593;SDS011;10455;48.732;10.266;2022-07-01T13:26:06;0.10;;;0.10;;
20593;SDS011;10455;48.732;10.266;2022-07-01T13:31:09;0.10;;;0.10;;
20593;SDS011;10455;48.732;10.266;2022-07-01T13:36:13;0.40;;;0.40;;
20593;SDS011;10455;48.732;10.266;2022-07-01T13:41:15;0.45;;;0.45;;
20593;SDS011;10455;48.732;10.266;2022-07-01T13:46:18;0.10;;;0.10;;
20593;SDS011;10455;48.732;10.266;2022-07-01T13:51:22;0.10;;;0.10;;
20593;SDS011;10455;48.732;10.266;2022-07-01T13:56:24;0.20;;;0.20;;
20593;SDS011;10455;48.732;10.266;2022-07-01T14:01:26;0.10;;;0.10;;
20593;SDS011;10455;48.732;10.266;2022-07-01T14:06:30;0.10;;;0.10;;
20593;SDS011;10455;48.732;10.266;2022-07-01T14:11:33;1.45;;;1.08;;
20593;SDS011;10455;48.732;10.266;2022-07-01T14:16:35;0.10;;;0.10;;
20593;SDS011;10455;48.732;10.266;2022-07-01T14:21:38;0.20;;;0.20;;
20593;SDS011;10455;48.732;10.266;2022-07-01T14:26:41;0.30;;;0.30;;
20593;SDS011;10455;48.732;10.266;2022-07-01T14:31:43;0.40;;;0.40;;
20593;SDS011;10455;48.732;10.266;2022-07-01T14:36:47;0.57;;;0.57;;
20593;SDS011;10455;48.732;10.266;2022-07-01T14:41:49;0.40;;;0.40;;
20593;SDS011;10455;48.732;10.266;2022-07-01T14:46:52;0.30;;;0.30;;
20593;SDS011;10455;48.732;10.266;2022-07-01T14:51:56;0.30;;;0.30;;
20593;SDS011;10455;48.732;10.266;2022-07-01T14:56:58;0.40;;;0.40;;
20593;SDS011;10455;48.732;10.266;2022-07-01T15:02:00;0.50;;;0.50;;
20593;SDS011;10455;48.732;10.266;2022-07-01T15:07:05;0.90;;;0.90;;
20593;SDS011;10455;48.732;10.266;2022-07-01T15:12:07;0.40;;;0.40;;
20593;SDS011;10455;48.732;10.266;2022-07-01T15:17:10;0.60;;;0.60;;
20593;SDS011;10455;48.732;10.266;2022-07-01T15:22:13;0.52;;;0.52;;
20593;SDS011;10455;48.732;10.266;2022-07-01T15:27:15;0.70;;;0.70;;
20593;SDS011;10455;48.732;10.266;2022-07-01T15:32:18;0.60;;;0.60;;
20593;SDS011;10455;48.732;10.266;2022-07-01T15:37:21;0.50;;;0.50;;
20593;SDS011;10455;48.732;10.266;2022-07-01T15:42:23;0.60;;;0.60;;
20593;SDS011;10455;48.732;10.266;2022-07-01T15:47:26;0.70;;;0.70;;
20593;SDS011;10455;48.732;10.266;2022-07-01T15:52:47;0.70;;;0.70;;
20593;SDS011;10455;48.732;10.266;2022-07-01T15:57:49;0.80;;;0.80;;
20593;SDS011;10455;48.732;10.266;2022-07-01T16:02:52;0.77;;;0.77;;
20593;SDS011;10455;48.732;10.266;2022-07-01T16:07:57;0.90;;;0.90;;
20593;SDS011;10455;48.732;10.266;2022-07-01T16:13:02;0.70;;;0.70;;
20593;SDS011;10455;48.732;10.266;2022-07-01T16:18:06;0.75;;;0.75;;
20593;SDS011;10455;48.732;10.266;2022-07-01T16:23:13;0.80;;;0.80;;
20593;SDS011;10455;48.732;10.266;2022-07-01T16:28:19;0.80;;;0.80;;
20593;SDS011;10455;48.732;10.266;2022-07-01T16:33:22;0.80;;;0.80;;
20593;SDS011;10455;48.732;10.266;2022-07-01T16:38:27;0.90;;;0.90;;
20593;SDS011;10455;48.732;10.266;2022-07-01T16:43:33;0.80;;;0.80;;
20593;SDS011;10455;48.732;10.266;2022-07-01T16:48:40;0.90;;;0.90;;
20593;SDS011;10455;48.732;10.266;2022-07-01T16:53:50;0.80;;;0.80;;
20593;SDS011;10455;48.732;10.266;2022-07-01T16:58:56;0.80;;;0.80;;
20593;SDS011;10455;48.732;10.266;2022-07-01T17:04:01;0.80;;;0.80;;
20593;SDS011;10455;48.732;10.266;2022-07-01T17:09:06;0.80;;;0.80;;
20593;SDS011;10455;48.732;10.266;2022-07-01T17:14:09;0.90;;;0.90;;
20593;SDS011;10455;48.732;10.266;2022-07-01T17:19:11;1.17;;;1.17;;
20593;SDS011;10455;48.732;10.266;2022-07-01T17:24:15;0.90;;;0.90;;
20593;SDS011;10455;48.732;10.266;2022-07-01T17:29:18;1.00;;;1.00;;
20593;SDS011;10455;48.732;10.266;2022-07-01T17:34:26;0.90;;;0.90;;
20593;SDS011;10455;48.732;10.266;2022-07-01T17:39:33;1.10;;;1.10;;
20593;SDS011;10455;48.732;10.266;2022-07-01T17:44:38;0.90;;;0.90;;
20593;SDS011;10455;48.732;10.266;2022-07-01T17:49:41;0.90;;;0.90;;
20593;SDS011;10455;48.732;10.266;2022-07-01T17:54:47;0.90;;;0.90;;
20593;SDS011;10455;48.732;10.266;2022-07-01T17:59:51;0.90;;;0.90;;
20593;SDS011;10455;48.732;10.266;2022-07-01T18:04:55;0.90;;;0.90;;
20593;SDS011;10455;48.732;10.266;2022-07-01T18:10:01;0.90;;;0.90;;
20593;SDS011;10455;48.732;10.266;2022-07-01T18:15:04;1.05;;;1.05;;
20593;SDS011;10455;48.732;10.266;2022-07-01T18:20:12;1.00;;;1.00;;
20593;SDS011;10455;48.732;10.266;2022-07-01T18:25:23;0.90;;;0.90;;
20593;SDS011;10455;48.732;10.266;2022-07-01T18:30:29;0.90;;;0.90;;
20593;SDS011;10455;48.732;10.266;2022-07-01T18:35:34;0.90;;;0.90;;
20593;SDS011;10455;48.732;10.266;2022-07-01T18:40:39;0.83;;;0.83;;
20593;SDS011;10455;48.732;10.266;2022-07-01T18:45:41;1.00;;;1.00;;
20593;SDS011;10455;48.732;10.266;2022-07-01T18:50:44;3.20;;;3.00;;
20593;SDS011;10455;48.732;10.266;2022-07-01T18:55:47;3.20;;;3.00;;
20593;SDS011;10455;48.732;10.266;2022-07-01T19:00:49;4.23;;;2.93;;
20593;SDS011;10455;48.732;10.266;2022-07-01T19:05:52;3.93;;;3.23;;
20593;SDS011;10455;48.732;10.266;2022-07-01T19:10:56;3.73;;;3.43;;
20593;SDS011;10455;48.732;10.266;2022-07-01T19:15:59;4.70;;;3.80;;
20593;SDS011;10455;48.732;10.266;2022-07-01T19:21:01;4.40;;;4.00;;
20593;SDS011;10455;48.732;10.266;2022-07-01T19:26:05;4.73;;;4.33;;
20593;SDS011;10455;48.732;10.266;2022-07-01T19:31:08;4.20;;;3.80;;
20593;SDS011;10455;48.732;10.266;2022-07-01T19:36:10;5.10;;;4.70;;
20593;SDS011;10455;48.732;10.266;2022-07-01T19:41:16;5.23;;;4.83;;
20593;SDS011;10455;48.732;10.266;2022-07-01T19:46:18;5.70;;;5.20;;
20593;SDS011;10455;48.732;10.266;2022-07-01T19:51:21;6.20;;;5.70;;
20593;SDS011;10455;48.732;10.266;2022-07-01T19:56:24;7.47;;;6.77;;
20593;SDS011;10455;48.732;10.266;2022-07-01T20:01:27;8.13;;;7.43;;
20593;SDS011;10455;48.732;10.266;2022-07-01T20:06:29;14.27;;;7.93;;
20593;SDS011;10455;48.732;10.266;2022-07-01T20:11:32;9.80;;;8.80;;
20593;SDS011;10455;48.732;10.266;2022-07-01T20:16:34;10.20;;;9.30;;
20593;SDS011;10455;48.732;10.266;2022-07-01T20:21:37;11.53;;;9.63;;
20593;SDS011;10455;48.732;10.266;2022-07-01T20:26:42;10.77;;;9.77;;
20593;SDS011;10455;48.732;10.266;2022-07-01T20:31:45;10.63;;;9.53;;
20593;SDS011;10455;48.732;10.266;2022-07-01T20:36:47;8.90;;;8.10;;
20593;SDS011;10455;48.732;10.266;2022-07-01T20:41:51;12.03;;;10.93;;
20593;SDS011;10455;48.732;10.266;2022-07-01T20:46:53;13.80;;;10.13;;
20593;SDS011;10455;48.732;10.266;2022-07-01T20:51:55;10.03;;;9.13;;
20593;SDS011;10455;48.732;10.266;2022-07-01T20:56:59;9.20;;;8.40;;
20593;SDS011;10455;48.732;10.266;2022-07-01T21:02:01;8.30;;;7.60;;
20593;SDS011;10455;48.732;10.266;2022-07-01T21:07:04;8.30;;;7.60;;
20593;SDS011;10455;48.732;10.266;2022-07-01T21:12:08;7.73;;;6.93;;
20593;SDS011;10455;48.732;10.266;2022-07-01T21:17:10;9.87;;;8.97;;
20593;SDS011;10455;48.732;10.266;2022-07-01T21:22:12;10.30;;;9.40;;
20593;SDS011;10455;48.732;10.266;2022-07-01T21:27:16;9.83;;;8.93;;
20593;SDS011;10455;48.732;10.266;2022-07-01T21:32:18;13.27;;;9.93;;
20593;SDS011;10455;48.732;10.266;2022-07-01T21:37:21;13.90;;;9.97;;
20593;SDS011;10455;48.732;10.266;2022-07-01T21:42:26;12.23;;;10.93;;
20593;SDS011;10455;48.732;10.266;2022-07-01T21:47:29;13.27;;;11.30;;
20593;SDS011;10455;48.732;10.266;2022-07-01T21:52:32;11.07;;;10.07;;
20593;SDS011;10455;48.732;10.266;2022-07-01T21:57:38;10.70;;;9.43;;
20593;SDS011;10455;48.732;10.266;2022-07-01T22:02:44;13.67;;;12.33;;
20593;SDS011;10455;48.732;10.266;2022-07-01T22:07:47;19.27;;;14.93;;
20593;SDS011;10455;48.732;10.266;2022-07-01T22:12:51;9.70;;;8.77;;
20593;SDS011;10455;48.732;10.266;2022-07-01T22:17:53;14.50;;;12.47;;
20593;SDS011;10455;48.732;10.266;2022-07-01T22:22:55;18.77;;;14.00;;
20593;SDS011;10455;48.732;10.266;2022-07-01T22:28:00;14.33;;;12.83;;
20593;SDS011;10455;48.732;10.266;2022-07-01T22:33:03;13.17;;;11.03;;
20593;SDS011;10455;48.732;10.266;2022-07-01T22:38:05;12.90;;;11.70;;
20593;SDS011;10455;48.732;10.266;2022-07-01T22:43:09;14.77;;;13.27;;
20593;SDS011;10455;48.732;10.266;2022-07-01T22:48:30;13.37;;;10.80;;
20593;SDS011;10455;48.732;10.266;2022-07-01T22:53:41;11.70;;;10.50;;
20593;SDS011;10455;48.732;10.266;2022-07-01T22:58:47;11.37;;;10.17;;
20593;SDS011;10455;48.732;10.266;2022-07-01T23:03:55;9.77;;;8.77;;
20593;SDS011;10455;48.732;10.266;2022-07-01T23:09:03;9.17;;;8.27;;
20593;SDS011;10455;48.732;10.266;2022-07-01T23:14:09;12.50;;;9.27;;
20593;SDS011;10455;48.732;10.266;2022-07-01T23:19:33;10.13;;;9.13;;
20593;SDS011;10455;48.732;10.266;2022-07-01T23:24:38;13.23;;;10.17;;
20593;SDS011;10455;48.732;10.266;2022-07-01T23:29:45;37.13;;;15.57;;
20593;SDS011;10455;48.732;10.266;2022-07-01T23:34:51;14.57;;;11.80;;
20593;SDS011;10455;48.732;10.266;2022-07-01T23:39:54;13.23;;;9.67;;
20593;SDS011;10455;48.732;10.266;2022-07-01T23:44:58;20.90;;;12.60;;
20593;SDS011;10455;48.732;10.266;2022-07-01T23:50:00;21.17;;;13.97;;
20593;SDS011;10455;48.732;10.266;2022-07-01T23:55:03;11.70;;;10.40;;
